sensor_id;sensor_type;location;lat;lon;timestamp;pressure;altitude;pressure_sealevel;temperature;humidity
16255;BME280;8235;52.198;9.904;2023-05-14T00:01:01;101225.88;;;11.91;71.64
16255;BME280;8235;52.198;9.904;2023-05-14T00:03:28;101219.78;;;11.89;71.93
16255;BME280;8235;52.198;9.904;2023-05-14T00:05:54;101223.41;;;11.88;72.40
16255;BME280;8235;52.198;9.904;2023-05-14T00:08:21;101217.28;;;11.86;72.45
16255;BME280;8235;52.198;9.904;2023-05-14T00:10:48;101227.97;;;11.86;72.62
16255;BME280;8235;52.198;9.904;2023-05-14T00:13:15;101231.03;;;11.79;71.94
16255;BME280;8235;52.198;9.904;2023-05-14T00:15:41;101235.22;;;11.68;72.15
16255;BME280;8235;52.198;9.904;2023-05-14T00:18:08;101229.47;;;11.60;72.09
16255;BME280;8235;52.198;9.904;2023-05-14T00:20:36;101224.75;;;11.49;72.43
16255;BME280;8235;52.198;9.904;2023-05-14T00:23:02;101216.34;;;11.41;73.10
16255;BME280;8235;52.198;9.904;2023-05-14T00:25:29;101214.81;;;11.37;73.29
16255;BME280;8235;52.198;9.904;2023-05-14T00:27:57;101218.75;;;11.30;73.69
16255;BME280;8235;52.198;9.904;2023-05-14T00:30:23;101211.13;;;11.24;73.92
16255;BME280;8235;52.198;9.904;2023-05-14T00:32:50;101207.09;;;11.17;73.78
16255;BME280;8235;52.198;9.904;2023-05-14T00:35:17;101210.94;;;11.11;74.48
16255;BME280;8235;52.198;9.904;2023-05-14T00:37:44;101203.31;;;11.05;74.24
16255;BME280;8235;52.198;9.904;2023-05-14T00:40:11;101208.13;;;10.98;74.27
16255;BME280;8235;52.198;9.904;2023-05-14T00:42:38;101200.56;;;10.91;74.76
16255;BME280;8235;52.198;9.904;2023-05-14T00:45:07;101200.91;;;10.85;75.04
16255;BME280;8235;52.198;9.904;2023-05-14T00:47:33;101202.09;;;10.79;74.68
16255;BME280;8235;52.198;9.904;2023-05-14T00:50:01;101199.97;;;10.70;74.33
16255;BME280;8235;52.198;9.904;2023-05-14T00:52:28;101200.53;;;10.59;74.77
16255;BME280;8235;52.198;9.904;2023-05-14T00:54:55;101197.44;;;10.51;75.69
16255;BME280;8235;52.198;9.904;2023-05-14T00:57:22;101198.63;;;10.46;76.20
16255;BME280;8235;52.198;9.904;2023-05-14T00:59:49;101202.22;;;10.44;77.27
16255;BME280;8235;52.198;9.904;2023-05-14T01:02:16;101201.28;;;10.46;78.08
16255;BME280;8235;52.198;9.904;2023-05-14T01:04:43;101202.06;;;10.48;78.57
16255;BME280;8235;52.198;9.904;2023-05-14T01:07:15;101199.31;;;10.49;78.67
16255;BME280;8235;52.198;9.904;2023-05-14T01:09:50;101205.59;;;10.48;78.53
16255;BME280;8235;52.198;9.904;2023-05-14T01:12:25;101206.53;;;10.47;79.35
16255;BME280;8235;52.198;9.904;2023-05-14T01:14:56;101203.94;;;10.46;79.16
16255;BME280;8235;52.198;9.904;2023-05-14T01:17:27;101204.19;;;10.41;79.55
16255;BME280;8235;52.198;9.904;2023-05-14T01:19:55;101198.19;;;10.37;79.74
16255;BME280;8235;52.198;9.904;2023-05-14T01:22:23;101203.50;;;10.37;80.61
16255;BME280;8235;52.198;9.904;2023-05-14T01:24:49;101201.59;;;10.39;80.30
16255;BME280;8235;52.198;9.904;2023-05-14T01:27:21;101198.94;;;10.39;80.35
16255;BME280;8235;52.198;9.904;2023-05-14T01:29:52;101195.53;;;10.37;80.11
16255;BME280;8235;52.198;9.904;2023-05-14T01:32:21;101190.38;;;10.34;80.02
16255;BME280;8235;52.198;9.904;2023-05-14T01:34:49;101193.25;;;10.30;79.88
16255;BME280;8235;52.198;9.904;2023-05-14T01:37:17;101191.78;;;10.24;80.01
16255;BME280;8235;52.198;9.904;2023-05-14T01:39:45;101190.31;;;10.19;79.31
16255;BME280;8235;52.198;9.904;2023-05-14T01:42:12;101191.69;;;10.08;79.68
16255;BME280;8235;52.198;9.904;2023-05-14T01:44:39;101193.72;;;10.03;80.17
16255;BME280;8235;52.198;9.904;2023-05-14T01:47:06;101192.19;;;9.99;80.51
16255;BME280;8235;52.198;9.904;2023-05-14T01:49:32;101191.50;;;9.96;80.73
16255;BME280;8235;52.198;9.904;2023-05-14T01:51:58;101194.16;;;9.96;81.32
16255;BME280;8235;52.198;9.904;2023-05-14T01:54:25;101187.97;;;9.95;81.51
16255;BME280;8235;52.198;9.904;2023-05-14T01:56:53;101186.97;;;9.98;81.89
16255;BME280;8235;52.198;9.904;2023-05-14T01:59:19;101187.81;;;9.98;82.35
16255;BME280;8235;52.198;9.904;2023-05-14T02:01:46;101191.25;;;10.00;82.40
16255;BME280;8235;52.198;9.904;2023-05-14T02:04:12;101188.53;;;10.02;82.74
16255;BME280;8235;52.198;9.904;2023-05-14T02:06:39;101181.28;;;10.04;82.40
16255;BME280;8235;52.198;9.904;2023-05-14T02:09:05;101186.63;;;10.04;82.50
16255;BME280;8235;52.198;9.904;2023-05-14T02:11:32;101178.56;;;10.05;82.84
16255;BME280;8235;52.198;9.904;2023-05-14T02:13:59;101184.81;;;10.04;82.64
16255;BME280;8235;52.198;9.904;2023-05-14T02:16:26;101183.19;;;10.02;82.96
16255;BME280;8235;52.198;9.904;2023-05-14T02:18:52;101180.63;;;10.00;82.97
16255;BME280;8235;52.198;9.904;2023-05-14T02:21:19;101182.41;;;10.00;83.10
16255;BME280;8235;52.198;9.904;2023-05-14T02:23:45;101180.78;;;9.97;83.35
16255;BME280;8235;52.198;9.904;2023-05-14T02:26:13;101180.94;;;9.94;82.42
16255;BME280;8235;52.198;9.904;2023-05-14T02:28:40;101185.63;;;9.89;82.48
16255;BME280;8235;52.198;9.904;2023-05-14T02:31:07;101177.13;;;9.83;82.76
16255;BME280;8235;52.198;9.904;2023-05-14T02:33:34;101179.00;;;9.81;83.18
16255;BME280;8235;52.198;9.904;2023-05-14T02:36:00;101174.69;;;9.78;83.18
16255;BME280;8235;52.198;9.904;2023-05-14T02:38:27;101176.41;;;9.79;83.75
16255;BME280;8235;52.198;9.904;2023-05-14T02:40:53;101175.53;;;9.79;84.35
16255;BME280;8235;52.198;9.904;2023-05-14T02:43:20;101164.91;;;9.79;84.42
16255;BME280;8235;52.198;9.904;2023-05-14T02:45:46;101170.22;;;9.79;84.86
16255;BME280;8235;52.198;9.904;2023-05-14T02:48:14;101168.44;;;9.79;84.75
16255;BME280;8235;52.198;9.904;2023-05-14T02:50:41;101172.09;;;9.77;84.41
16255;BME280;8235;52.198;9.904;2023-05-14T02:53:07;101168.66;;;9.74;84.85
16255;BME280;8235;52.198;9.904;2023-05-14T02:55:34;101169.75;;;9.70;84.51
16255;BME280;8235;52.198;9.904;2023-05-14T02:58:00;101170.47;;;9.57;82.82
16255;BME280;8235;52.198;9.904;2023-05-14T03:00:27;101172.97;;;9.43;82.54
16255;BME280;8235;52.198;9.904;2023-05-14T03:02:53;101169.88;;;9.33;83.34
16255;BME280;8235;52.198;9.904;2023-05-14T03:05:21;101179.19;;;9.24;83.17
16255;BME280;8235;52.198;9.904;2023-05-14T03:07:48;101175.97;;;9.18;84.22
16255;BME280;8235;52.198;9.904;2023-05-14T03:10:15;101174.25;;;9.17;84.46
16255;BME280;8235;52.198;9.904;2023-05-14T03:12:42;101175.25;;;9.14;85.45
16255;BME280;8235;52.198;9.904;2023-05-14T03:15:09;101176.34;;;9.10;85.15
16255;BME280;8235;52.198;9.904;2023-05-14T03:17:36;101171.13;;;9.09;86.21
16255;BME280;8235;52.198;9.904;2023-05-14T03:20:02;101169.41;;;9.08;86.54
16255;BME280;8235;52.198;9.904;2023-05-14T03:22:31;101172.13;;;9.06;86.77
16255;BME280;8235;52.198;9.904;2023-05-14T03:24:57;101166.03;;;9.04;87.23
16255;BME280;8235;52.198;9.904;2023-05-14T03:27:23;101166.09;;;9.02;86.57
16255;BME280;8235;52.198;9.904;2023-05-14T03:29:50;101160.78;;;9.02;87.57
16255;BME280;8235;52.198;9.904;2023-05-14T03:32:16;101157.34;;;9.00;86.90
16255;BME280;8235;52.198;9.904;2023-05-14T03:34:43;101162.72;;;8.99;87.12
16255;BME280;8235;52.198;9.904;2023-05-14T03:37:10;101168.16;;;8.96;87.16
16255;BME280;8235;52.198;9.904;2023-05-14T03:39:37;101171.00;;;8.93;87.21
16255;BME280;8235;52.198;9.904;2023-05-14T03:42:04;101169.34;;;8.90;87.40
16255;BME280;8235;52.198;9.904;2023-05-14T03:44:30;101169.41;;;8.89;87.58
16255;BME280;8235;52.198;9.904;2023-05-14T03:46:57;101161.38;;;8.90;87.86
16255;BME280;8235;52.198;9.904;2023-05-14T03:49:24;101161.38;;;8.90;88.62
16255;BME280;8235;52.198;9.904;2023-05-14T03:51:50;101156.00;;;8.92;88.81
16255;BME280;8235;52.198;9.904;2023-05-14T03:54:16;101153.28;;;8.93;88.26
16255;BME280;8235;52.198;9.904;2023-05-14T03:56:44;101160.31;;;8.94;89.20
16255;BME280;8235;52.198;9.904;2023-05-14T03:59:11;101162.03;;;8.95;89.25
16255;BME280;8235;52.198;9.904;2023-05-14T04:01:37;101152.34;;;8.94;89.09
16255;BME280;8235;52.198;9.904;2023-05-14T04:04:04;101162.84;;;8.96;89.31
16255;BME280;8235;52.198;9.904;2023-05-14T04:06:31;101156.63;;;8.97;89.58
16255;BME280;8235;52.198;9.904;2023-05-14T04:08:58;101148.56;;;8.98;90.19
16255;BME280;8235;52.198;9.904;2023-05-14T04:11:24;101152.94;;;8.99;89.69
16255;BME280;8235;52.198;9.904;2023-05-14T04:13:52;101159.06;;;9.01;90.53
16255;BME280;8235;52.198;9.904;2023-05-14T04:16:18;101151.88;;;9.03;90.57
16255;BME280;8235;52.198;9.904;2023-05-14T04:18:45;101161.50;;;9.06;90.46
16255;BME280;8235;52.198;9.904;2023-05-14T04:21:11;101165.81;;;9.09;90.62
16255;BME280;8235;52.198;9.904;2023-05-14T04:23:38;101156.03;;;9.09;91.09
16255;BME280;8235;52.198;9.904;2023-05-14T04:26:04;101160.34;;;9.12;90.52
16255;BME280;8235;52.198;9.904;2023-05-14T04:28:31;101162.81;;;9.15;91.45
16255;BME280;8235;52.198;9.904;2023-05-14T04:30:58;101165.34;;;9.18;91.72
16255;BME280;8235;52.198;9.904;2023-05-14T04:33:25;101160.81;;;9.20;90.88
16255;BME280;8235;52.198;9.904;2023-05-14T04:35:52;101165.97;;;9.23;91.70
16255;BME280;8235;52.198;9.904;2023-05-14T04:38:18;101157.94;;;9.24;91.31
16255;BME280;8235;52.198;9.904;2023-05-14T04:40:45;101162.25;;;9.27;91.18
16255;BME280;8235;52.198;9.904;2023-05-14T04:43:11;101159.59;;;9.27;91.61
16255;BME280;8235;52.198;9.904;2023-05-14T04:45:37;101161.31;;;9.28;91.33
16255;BME280;8235;52.198;9.904;2023-05-14T04:48:06;101164.91;;;9.27;91.52
16255;BME280;8235;52.198;9.904;2023-05-14T04:50:33;101161.53;;;9.23;91.32
16255;BME280;8235;52.198;9.904;2023-05-14T04:53:00;101160.59;;;9.24;91.99
16255;BME280;8235;52.198;9.904;2023-05-14T04:55:27;101165.03;;;9.24;92.25
16255;BME280;8235;52.198;9.904;2023-05-14T04:57:54;101159.66;;;9.25;93.11
16255;BME280;8235;52.198;9.904;2023-05-14T05:00:20;101159.59;;;9.27;92.96
16255;BME280;8235;52.198;9.904;2023-05-14T05:02:47;101161.16;;;9.31;93.99
16255;BME280;8235;52.198;9.904;2023-05-14T05:05:15;101158.31;;;9.34;93.89
16255;BME280;8235;52.198;9.904;2023-05-14T05:07:41;101156.38;;;9.37;94.23
16255;BME280;8235;52.198;9.904;2023-05-14T05:10:08;101157.94;;;9.42;94.97
16255;BME280;8235;52.198;9.904;2023-05-14T05:12:34;101162.03;;;9.49;94.60
16255;BME280;8235;52.198;9.904;2023-05-14T05:15:01;101162.56;;;9.55;94.89
16255;BME280;8235;52.198;9.904;2023-05-14T05:17:28;101156.84;;;9.63;95.99
16255;BME280;8235;52.198;9.904;2023-05-14T05:19:54;101161.91;;;9.67;96.21
16255;BME280;8235;52.198;9.904;2023-05-14T05:22:22;101155.34;;;9.74;96.61
16255;BME280;8235;52.198;9.904;2023-05-14T05:24:49;101152.31;;;9.82;97.38
16255;BME280;8235;52.198;9.904;2023-05-14T05:27:15;101157.13;;;9.91;97.10
16255;BME280;8235;52.198;9.904;2023-05-14T05:29:42;101153.16;;;10.00;97.50
16255;BME280;8235;52.198;9.904;2023-05-14T05:32:09;101159.75;;;10.08;98.19
16255;BME280;8235;52.198;9.904;2023-05-14T05:34:35;101157.50;;;10.18;98.12
16255;BME280;8235;52.198;9.904;2023-05-14T05:37:02;101165.78;;;10.29;98.71
16255;BME280;8235;52.198;9.904;2023-05-14T05:39:31;101162.44;;;10.41;99.11
16255;BME280;8235;52.198;9.904;2023-05-14T05:41:59;101161.78;;;10.54;99.51
16255;BME280;8235;52.198;9.904;2023-05-14T05:44:25;101149.66;;;10.64;99.09
16255;BME280;8235;52.198;9.904;2023-05-14T05:46:52;101147.25;;;10.75;98.31
16255;BME280;8235;52.198;9.904;2023-05-14T05:49:20;101150.88;;;10.90;98.55
16255;BME280;8235;52.198;9.904;2023-05-14T05:51:46;101145.53;;;11.05;98.49
16255;BME280;8235;52.198;9.904;2023-05-14T05:54:13;101148.09;;;11.23;98.09
16255;BME280;8235;52.198;9.904;2023-05-14T05:56:41;101149.69;;;11.41;97.54
16255;BME280;8235;52.198;9.904;2023-05-14T05:59:07;101147.81;;;11.57;96.54
16255;BME280;8235;52.198;9.904;2023-05-14T06:01:34;101151.38;;;11.72;95.32
16255;BME280;8235;52.198;9.904;2023-05-14T06:04:00;101153.06;;;11.89;94.11
16255;BME280;8235;52.198;9.904;2023-05-14T06:06:28;101153.06;;;12.03;92.82
16255;BME280;8235;52.198;9.904;2023-05-14T06:08:56;101157.28;;;12.21;91.72
16255;BME280;8235;52.198;9.904;2023-05-14T06:11:23;101161.47;;;12.39;90.73
16255;BME280;8235;52.198;9.904;2023-05-14T06:13:51;101158.50;;;12.58;89.87
16255;BME280;8235;52.198;9.904;2023-05-14T06:16:17;101156.34;;;12.77;89.10
16255;BME280;8235;52.198;9.904;2023-05-14T06:18:44;101163.19;;;12.96;87.60
16255;BME280;8235;52.198;9.904;2023-05-14T06:21:11;101163.72;;;13.15;86.21
16255;BME280;8235;52.198;9.904;2023-05-14T06:23:37;101156.31;;;13.33;85.67
16255;BME280;8235;52.198;9.904;2023-05-14T06:26:04;101159.00;;;13.45;83.86
16255;BME280;8235;52.198;9.904;2023-05-14T06:28:30;101156.78;;;13.52;82.79
16255;BME280;8235;52.198;9.904;2023-05-14T06:30:58;101161.41;;;13.63;82.40
16255;BME280;8235;52.198;9.904;2023-05-14T06:33:24;101160.38;;;13.78;81.51
16255;BME280;8235;52.198;9.904;2023-05-14T06:35:54;101158.78;;;13.88;81.13
16255;BME280;8235;52.198;9.904;2023-05-14T06:38:21;101156.31;;;13.98;79.95
16255;BME280;8235;52.198;9.904;2023-05-14T06:40:47;101150.53;;;14.04;79.10
16255;BME280;8235;52.198;9.904;2023-05-14T06:43:14;101148.72;;;14.04;78.83
16255;BME280;8235;52.198;9.904;2023-05-14T06:45:40;101143.34;;;14.04;78.19
16255;BME280;8235;52.198;9.904;2023-05-14T06:48:08;101146.88;;;14.05;78.13
16255;BME280;8235;52.198;9.904;2023-05-14T06:50:35;101143.34;;;14.04;78.59
16255;BME280;8235;52.198;9.904;2023-05-14T06:53:01;101145.19;;;14.04;78.37
16255;BME280;8235;52.198;9.904;2023-05-14T06:55:27;101144.97;;;14.07;78.78
16255;BME280;8235;52.198;9.904;2023-05-14T06:57:54;101152.34;;;14.16;79.53
16255;BME280;8235;52.198;9.904;2023-05-14T07:00:21;101147.09;;;14.27;78.77
16255;BME280;8235;52.198;9.904;2023-05-14T07:02:47;101144.41;;;14.40;78.93
16255;BME280;8235;52.198;9.904;2023-05-14T07:05:15;101141.50;;;14.55;78.92
16255;BME280;8235;52.198;9.904;2023-05-14T07:07:42;101139.53;;;14.70;77.42
16255;BME280;8235;52.198;9.904;2023-05-14T07:10:09;101147.44;;;14.84;76.71
16255;BME280;8235;52.198;9.904;2023-05-14T07:12:35;101144.72;;;14.97;76.24
16255;BME280;8235;52.198;9.904;2023-05-14T07:15:02;101141.84;;;15.11;75.16
16255;BME280;8235;52.198;9.904;2023-05-14T07:17:28;101139.47;;;15.19;74.22
16255;BME280;8235;52.198;9.904;2023-05-14T07:19:55;101134.16;;;15.31;74.11
16255;BME280;8235;52.198;9.904;2023-05-14T07:22:22;101137.59;;;15.44;74.13
16255;BME280;8235;52.198;9.904;2023-05-14T07:24:49;101127.69;;;15.57;73.58
16255;BME280;8235;52.198;9.904;2023-05-14T07:27:15;101126.50;;;15.72;73.18
16255;BME280;8235;52.198;9.904;2023-05-14T07:29:42;101121.91;;;15.85;72.33
16255;BME280;8235;52.198;9.904;2023-05-14T07:32:08;101123.38;;;16.01;71.60
16255;BME280;8235;52.198;9.904;2023-05-14T07:34:35;101123.13;;;16.15;71.56
16255;BME280;8235;52.198;9.904;2023-05-14T07:37:02;101123.63;;;16.31;71.11
16255;BME280;8235;52.198;9.904;2023-05-14T07:39:30;101118.75;;;16.47;71.27
16255;BME280;8235;52.198;9.904;2023-05-14T07:41:56;101114.63;;;16.65;70.30
16255;BME280;8235;52.198;9.904;2023-05-14T07:44:23;101119.47;;;16.83;69.53
16255;BME280;8235;52.198;9.904;2023-05-14T07:46:49;101119.91;;;16.99;69.55
16255;BME280;8235;52.198;9.904;2023-05-14T07:49:15;101113.25;;;17.14;69.36
16255;BME280;8235;52.198;9.904;2023-05-14T07:51:42;101110.97;;;17.30;68.89
16255;BME280;8235;52.198;9.904;2023-05-14T07:54:08;101104.56;;;17.43;67.65
16255;BME280;8235;52.198;9.904;2023-05-14T07:56:36;101110.16;;;17.51;66.62
16255;BME280;8235;52.198;9.904;2023-05-14T07:59:03;101096.63;;;17.62;66.13
16255;BME280;8235;52.198;9.904;2023-05-14T08:01:31;101104.69;;;17.73;65.35
16255;BME280;8235;52.198;9.904;2023-05-14T08:03:57;101102.50;;;17.88;65.00
16255;BME280;8235;52.198;9.904;2023-05-14T08:06:24;101095.16;;;17.99;64.67
16255;BME280;8235;52.198;9.904;2023-05-14T08:08:51;101102.16;;;18.12;63.40
16255;BME280;8235;52.198;9.904;2023-05-14T08:11:18;101093.69;;;18.16;62.55
16255;BME280;8235;52.198;9.904;2023-05-14T08:13:46;101100.78;;;18.17;62.75
16255;BME280;8235;52.198;9.904;2023-05-14T08:16:13;101102.75;;;18.15;62.38
16255;BME280;8235;52.198;9.904;2023-05-14T08:18:39;101101.19;;;18.13;62.89
16255;BME280;8235;52.198;9.904;2023-05-14T08:21:06;101106.84;;;18.10;62.76
16255;BME280;8235;52.198;9.904;2023-05-14T08:23:32;101108.00;;;18.07;63.03
16255;BME280;8235;52.198;9.904;2023-05-14T08:25:59;101107.13;;;18.07;63.36
16255;BME280;8235;52.198;9.904;2023-05-14T08:28:25;101104.56;;;18.05;62.87
16255;BME280;8235;52.198;9.904;2023-05-14T08:31:00;101103.00;;;18.02;62.93
16255;BME280;8235;52.198;9.904;2023-05-14T08:33:27;101090.97;;;18.07;63.62
16255;BME280;8235;52.198;9.904;2023-05-14T08:35:53;101091.69;;;18.09;63.40
16255;BME280;8235;52.198;9.904;2023-05-14T08:38:20;101096.38;;;18.16;62.92
16255;BME280;8235;52.198;9.904;2023-05-14T08:40:47;101088.34;;;18.26;63.03
16255;BME280;8235;52.198;9.904;2023-05-14T08:43:18;101082.00;;;18.36;62.29
16255;BME280;8235;52.198;9.904;2023-05-14T08:45:51;101073.91;;;18.46;61.75
16255;BME280;8235;52.198;9.904;2023-05-14T08:48:21;101077.28;;;18.59;61.23
16255;BME280;8235;52.198;9.904;2023-05-14T08:50:48;101067.34;;;18.69;60.25
16255;BME280;8235;52.198;9.904;2023-05-14T08:53:14;101076.34;;;18.80;59.23
16255;BME280;8235;52.198;9.904;2023-05-14T08:55:41;101068.94;;;18.91;58.52
16255;BME280;8235;52.198;9.904;2023-05-14T08:58:09;101067.94;;;19.02;57.47
16255;BME280;8235;52.198;9.904;2023-05-14T09:00:35;101061.84;;;19.10;56.11
16255;BME280;8235;52.198;9.904;2023-05-14T09:03:02;101056.16;;;19.22;55.71
16255;BME280;8235;52.198;9.904;2023-05-14T09:05:32;101052.63;;;19.31;55.23
16255;BME280;8235;52.198;9.904;2023-05-14T09:07:59;101052.16;;;19.36;54.61
16255;BME280;8235;52.198;9.904;2023-05-14T09:10:26;101049.31;;;19.37;54.30
16255;BME280;8235;52.198;9.904;2023-05-14T09:12:52;101048.75;;;19.43;54.21
16255;BME280;8235;52.198;9.904;2023-05-14T09:15:19;101048.31;;;19.48;53.88
16255;BME280;8235;52.198;9.904;2023-05-14T09:17:45;101038.50;;;19.57;53.52
16255;BME280;8235;52.198;9.904;2023-05-14T09:20:13;101048.88;;;19.61;52.92
16255;BME280;8235;52.198;9.904;2023-05-14T09:22:41;101042.06;;;19.67;52.37
16255;BME280;8235;52.198;9.904;2023-05-14T09:25:09;101035.91;;;19.74;53.34
16255;BME280;8235;52.198;9.904;2023-05-14T09:27:37;101035.59;;;19.87;53.10
16255;BME280;8235;52.198;9.904;2023-05-14T09:30:07;101043.81;;;19.95;52.04
16255;BME280;8235;52.198;9.904;2023-05-14T09:32:36;101049.63;;;20.00;51.83
16255;BME280;8235;52.198;9.904;2023-05-14T09:35:11;101035.50;;;20.06;51.28
16255;BME280;8235;52.198;9.904;2023-05-14T09:37:41;101030.50;;;20.11;51.05
16255;BME280;8235;52.198;9.904;2023-05-14T09:40:09;101024.94;;;20.13;49.60
16255;BME280;8235;52.198;9.904;2023-05-14T09:42:36;101020.81;;;20.19;50.03
16255;BME280;8235;52.198;9.904;2023-05-14T09:45:02;101018.19;;;20.27;50.88
16255;BME280;8235;52.198;9.904;2023-05-14T09:47:29;101018.41;;;20.43;50.84
16255;BME280;8235;52.198;9.904;2023-05-14T09:49:56;101021.91;;;20.53;49.75
16255;BME280;8235;52.198;9.904;2023-05-14T09:52:23;101024.88;;;20.60;49.77
16255;BME280;8235;52.198;9.904;2023-05-14T09:54:52;101017.69;;;20.68;49.64
16255;BME280;8235;52.198;9.904;2023-05-14T09:57:18;101013.38;;;20.75;48.80
16255;BME280;8235;52.198;9.904;2023-05-14T09:59:45;101007.31;;;20.82;48.78
16255;BME280;8235;52.198;9.904;2023-05-14T10:02:15;101004.69;;;20.90;48.12
16255;BME280;8235;52.198;9.904;2023-05-14T10:04:47;101004.22;;;20.94;48.28
16255;BME280;8235;52.198;9.904;2023-05-14T10:07:15;100995.97;;;20.96;47.46
16255;BME280;8235;52.198;9.904;2023-05-14T10:09:43;100996.63;;;20.98;47.75
16255;BME280;8235;52.198;9.904;2023-05-14T10:12:13;100997.41;;;21.08;48.30
16255;BME280;8235;52.198;9.904;2023-05-14T10:14:44;100987.63;;;21.15;47.88
16255;BME280;8235;52.198;9.904;2023-05-14T10:17:14;100993.31;;;21.22;46.74
16255;BME280;8235;52.198;9.904;2023-05-14T10:19:46;100988.13;;;21.28;45.64
16255;BME280;8235;52.198;9.904;2023-05-14T10:22:18;100989.47;;;21.32;44.38
16255;BME280;8235;52.198;9.904;2023-05-14T10:24:47;100982.06;;;21.34;43.89
16255;BME280;8235;52.198;9.904;2023-05-14T10:27:18;100974.78;;;21.35;44.07
16255;BME280;8235;52.198;9.904;2023-05-14T10:29:50;100987.16;;;21.37;44.57
16255;BME280;8235;52.198;9.904;2023-05-14T10:32:19;100977.56;;;21.43;43.64
16255;BME280;8235;52.198;9.904;2023-05-14T10:34:46;100976.53;;;21.44;43.76
16255;BME280;8235;52.198;9.904;2023-05-14T10:37:14;100985.91;;;21.50;44.47
16255;BME280;8235;52.198;9.904;2023-05-14T10:39:46;100973.88;;;21.52;43.96
16255;BME280;8235;52.198;9.904;2023-05-14T10:42:16;100968.28;;;21.54;43.63
16255;BME280;8235;52.198;9.904;2023-05-14T10:45:02;100961.72;;;21.56;44.04
16255;BME280;8235;52.198;9.904;2023-05-14T10:47:32;100968.66;;;21.59;44.06
16255;BME280;8235;52.198;9.904;2023-05-14T10:50:00;100973.47;;;21.65;43.39
16255;BME280;8235;52.198;9.904;2023-05-14T10:52:28;100971.25;;;21.68;43.13
16255;BME280;8235;52.198;9.904;2023-05-14T10:54:56;100964.81;;;21.69;41.28
16255;BME280;8235;52.198;9.904;2023-05-14T10:57:24;100956.69;;;21.69;41.45
16255;BME280;8235;52.198;9.904;2023-05-14T10:59:52;100962.31;;;21.76;41.62
16255;BME280;8235;52.198;9.904;2023-05-14T11:02:22;100963.72;;;21.80;41.33
16255;BME280;8235;52.198;9.904;2023-05-14T11:04:54;100964.09;;;21.85;41.55
16255;BME280;8235;52.198;9.904;2023-05-14T11:07:24;100960.16;;;21.88;40.59
16255;BME280;8235;52.198;9.904;2023-05-14T11:09:52;100954.91;;;21.86;40.12
16255;BME280;8235;52.198;9.904;2023-05-14T11:12:21;100954.91;;;21.86;40.87
16255;BME280;8235;52.198;9.904;2023-05-14T11:14:49;100951.38;;;21.94;41.67
16255;BME280;8235;52.198;9.904;2023-05-14T11:17:16;100941.28;;;22.04;41.24
16255;BME280;8235;52.198;9.904;2023-05-14T11:19:44;100942.34;;;22.11;41.28
16255;BME280;8235;52.198;9.904;2023-05-14T11:22:11;100949.13;;;22.15;41.01
16255;BME280;8235;52.198;9.904;2023-05-14T11:24:38;100947.09;;;22.17;41.17
16255;BME280;8235;52.198;9.904;2023-05-14T11:27:06;100942.53;;;22.17;39.82
16255;BME280;8235;52.198;9.904;2023-05-14T11:29:33;100939.50;;;22.21;39.77
16255;BME280;8235;52.198;9.904;2023-05-14T11:31:59;100939.13;;;22.24;39.58
16255;BME280;8235;52.198;9.904;2023-05-14T11:34:26;100919.50;;;22.30;39.93
16255;BME280;8235;52.198;9.904;2023-05-14T11:36:55;100928.00;;;22.35;40.59
16255;BME280;8235;52.198;9.904;2023-05-14T11:39:21;100916.97;;;22.36;40.10
16255;BME280;8235;52.198;9.904;2023-05-14T11:41:48;100912.88;;;22.40;40.52
16255;BME280;8235;52.198;9.904;2023-05-14T11:44:14;100913.25;;;22.45;40.51
16255;BME280;8235;52.198;9.904;2023-05-14T11:46:52;100902.75;;;22.50;39.96
16255;BME280;8235;52.198;9.904;2023-05-14T11:49:20;100902.56;;;22.60;39.89
16255;BME280;8235;52.198;9.904;2023-05-14T11:51:46;100889.50;;;22.64;39.02
16255;BME280;8235;52.198;9.904;2023-05-14T11:54:14;100883.56;;;22.68;38.28
16255;BME280;8235;52.198;9.904;2023-05-14T11:56:40;100896.81;;;22.71;37.57
16255;BME280;8235;52.198;9.904;2023-05-14T11:59:09;100887.84;;;22.79;38.15
16255;BME280;8235;52.198;9.904;2023-05-14T12:01:36;100881.91;;;22.83;37.11
16255;BME280;8235;52.198;9.904;2023-05-14T12:04:03;100874.59;;;22.84;37.50
16255;BME280;8235;52.198;9.904;2023-05-14T12:06:30;100877.16;;;22.85;37.39
16255;BME280;8235;52.198;9.904;2023-05-14T12:08:57;100874.09;;;22.80;37.71
16255;BME280;8235;52.198;9.904;2023-05-14T12:11:29;100883.25;;;22.79;38.15
16255;BME280;8235;52.198;9.904;2023-05-14T12:13:56;100874.44;;;22.77;37.11
16255;BME280;8235;52.198;9.904;2023-05-14T12:16:22;100871.53;;;22.71;37.17
16255;BME280;8235;52.198;9.904;2023-05-14T12:18:49;100867.13;;;22.70;37.53
16255;BME280;8235;52.198;9.904;2023-05-14T12:21:16;100866.78;;;22.73;37.00
16255;BME280;8235;52.198;9.904;2023-05-14T12:23:42;100862.72;;;22.77;37.13
16255;BME280;8235;52.198;9.904;2023-05-14T12:26:09;100859.16;;;22.84;37.50
16255;BME280;8235;52.198;9.904;2023-05-14T12:28:38;100859.34;;;22.91;38.07
16255;BME280;8235;52.198;9.904;2023-05-14T12:31:07;100864.22;;;22.96;37.86
16255;BME280;8235;52.198;9.904;2023-05-14T12:33:33;100854.03;;;22.98;37.81
16255;BME280;8235;52.198;9.904;2023-05-14T12:36:00;100858.09;;;23.02;38.18
16255;BME280;8235;52.198;9.904;2023-05-14T12:38:26;100839.59;;;23.05;37.61
16255;BME280;8235;52.198;9.904;2023-05-14T12:40:53;100841.31;;;23.06;37.46
16255;BME280;8235;52.198;9.904;2023-05-14T12:43:19;100835.34;;;23.11;37.50
16255;BME280;8235;52.198;9.904;2023-05-14T12:45:47;100838.53;;;23.14;37.83
16255;BME280;8235;52.198;9.904;2023-05-14T12:48:13;100828.53;;;23.15;37.74
16255;BME280;8235;52.198;9.904;2023-05-14T12:50:40;100829.38;;;23.15;37.96
16255;BME280;8235;52.198;9.904;2023-05-14T12:53:07;100823.78;;;23.17;38.11
16255;BME280;8235;52.198;9.904;2023-05-14T12:55:33;100820.72;;;23.20;37.40
16255;BME280;8235;52.198;9.904;2023-05-14T12:57:59;100822.41;;;23.21;37.54
16255;BME280;8235;52.198;9.904;2023-05-14T13:00:26;100812.56;;;23.20;37.42
16255;BME280;8235;52.198;9.904;2023-05-14T13:02:54;100809.84;;;23.20;37.20